Metz, Missouri
Current Conditions -  °F | °C
As of 8:15 AM on Monday 20 Oct 2014 (Local Time) from KPTS Reporting Station
Broken Clouds Broken Clouds  
Wind Chill: 61°   Ceiling: 5500
Heat Index: 61°   Visibility: 10mi
Dew Point: 56°   Wind: 6mph
Humidity: 83%   Direction: 230°SW
Pressure: 30.04"   Gusts: NA
Location:  38°N, 94.44°W
Report Text: KPTS 201315Z AUTO 23005KT 10SM SCT048 BKN055 16/13 A3004 RMK AO2 T01610132
Loading
Personal Weather Stations






























Interactive Weather Map
Tropical Storm Tracking
New forecast layout! Learn more

10-Day Weather Forecast

Advertisements
Track Severe Weather on mobile